DAUU/OGX METAR and TAF weather

Enter ICAO airport designator
Station Type Date Time Source
DAUU METAR 2019/10/16 19:00 UTC NOAA

DAUU 161900Z 03006KT CAVOK 26/11 Q1017


Station Type Date Time Source
DAUU Decoded METAR 2019/10/16 19:00 UTC NOAA

Ouargla, Algeria (DAUU) 31-55N 005-24E 141M
Oct 16, 2019 - 03:00 PM EDT / 2019.10.16 1900 UTC
Wind: from the NNE (030 degrees) at 7 MPH (6 KT):0
Visibility: greater than 7 mile(s):0
Temperature: 78 F (26 C)
Dew Point: 51 F (11 C)
Relative Humidity: 39%
Pressure (altimeter): 30.03 in. Hg (1017 hPa)
ob: DAUU 161900Z 03006KT CAVOK 26/11 Q1017
cycle: 19

Station Type Date Time Source
DAUU TAF 2017/11/09 18:03 UTC NOAA

TAF DAUU 091700Z 0918/1009 34012KT 9999 FEW040 SCT100 PROB40
TEMPO 0918/0924 34015G25KT 5000 -TSRA FEW036CB

Example: see airport list